sensor_id;sensor_type;location;lat;lon;timestamp;pressure;altitude;pressure_sealevel;temperature;humidity
72465;BME280;60471;52.150;4.508;2023-05-10T00:01:35;100576.38;;;12.80;88.67
72465;BME280;60471;52.150;4.508;2023-05-10T00:04:01;100575.28;;;12.84;88.42
72465;BME280;60471;52.150;4.508;2023-05-10T00:06:27;100573.28;;;12.87;88.43
72465;BME280;60471;52.150;4.508;2023-05-10T00:08:53;100572.78;;;12.81;88.54
72465;BME280;60471;52.150;4.508;2023-05-10T00:11:19;100569.69;;;12.88;88.62
72465;BME280;60471;52.150;4.508;2023-05-10T00:13:46;100572.91;;;12.93;88.45
72465;BME280;60471;52.150;4.508;2023-05-10T00:16:13;100569.38;;;12.78;88.66
72465;BME280;60471;52.150;4.508;2023-05-10T00:18:39;100569.56;;;12.90;88.73
72465;BME280;60471;52.150;4.508;2023-05-10T00:21:06;100563.25;;;12.92;88.91
72465;BME280;60471;52.150;4.508;2023-05-10T00:23:32;100562.75;;;13.00;88.23
72465;BME280;60471;52.150;4.508;2023-05-10T00:25:58;100555.38;;;12.91;88.38
72465;BME280;60471;52.150;4.508;2023-05-10T00:28:24;100564.19;;;12.91;88.24
72465;BME280;60471;52.150;4.508;2023-05-10T00:30:52;100564.19;;;12.91;88.12
72465;BME280;60471;52.150;4.508;2023-05-10T00:33:19;100565.44;;;12.86;88.22
72465;BME280;60471;52.150;4.508;2023-05-10T00:35:45;100561.94;;;12.85;88.30
72465;BME280;60471;52.150;4.508;2023-05-10T00:38:11;100566.06;;;12.89;87.88
72465;BME280;60471;52.150;4.508;2023-05-10T00:40:37;100562.28;;;12.79;88.08
72465;BME280;60471;52.150;4.508;2023-05-10T00:43:04;100564.19;;;12.77;88.07
72465;BME280;60471;52.150;4.508;2023-05-10T00:45:31;100558.69;;;12.80;88.47
72465;BME280;60471;52.150;4.508;2023-05-10T00:48:01;100551.91;;;12.76;88.76
72465;BME280;60471;52.150;4.508;2023-05-10T00:50:30;100556.53;;;12.72;88.86
72465;BME280;60471;52.150;4.508;2023-05-10T00:52:59;100557.19;;;12.76;89.22
72465;BME280;60471;52.150;4.508;2023-05-10T00:55:26;100561.53;;;12.77;89.39
72465;BME280;60471;52.150;4.508;2023-05-10T00:57:53;100559.66;;;12.93;88.41
72465;BME280;60471;52.150;4.508;2023-05-10T01:00:20;100558.63;;;12.82;88.06
72465;BME280;60471;52.150;4.508;2023-05-10T01:02:46;100557.84;;;12.65;88.60
72465;BME280;60471;52.150;4.508;2023-05-10T01:05:13;100573.53;;;12.68;88.59
72465;BME280;60471;52.150;4.508;2023-05-10T01:07:39;100577.44;;;12.63;87.98
72465;BME280;60471;52.150;4.508;2023-05-10T01:10:07;100585.56;;;12.60;88.03
72465;BME280;60471;52.150;4.508;2023-05-10T01:12:37;100595.00;;;12.50;87.82
72465;BME280;60471;52.150;4.508;2023-05-10T01:15:06;100590.81;;;12.45;88.22
72465;BME280;60471;52.150;4.508;2023-05-10T01:17:37;100595.84;;;12.50;88.64
72465;BME280;60471;52.150;4.508;2023-05-10T01:20:07;100599.16;;;12.54;88.51
72465;BME280;60471;52.150;4.508;2023-05-10T01:23:19;100600.59;;;12.59;88.44
72465;BME280;60471;52.150;4.508;2023-05-10T01:35:55;100610.94;;;13.06;88.09
72465;BME280;60471;52.150;4.508;2023-05-10T01:41:38;100607.44;;;13.20;87.58
72465;BME280;60471;52.150;4.508;2023-05-10T01:44:16;100613.31;;;13.25;86.65
72465;BME280;60471;52.150;4.508;2023-05-10T01:46:54;100615.19;;;13.09;87.68
72465;BME280;60471;52.150;4.508;2023-05-10T01:49:31;100614.44;;;13.21;87.68
72465;BME280;60471;52.150;4.508;2023-05-10T01:52:07;100621.31;;;13.10;86.79
72465;BME280;60471;52.150;4.508;2023-05-10T01:54:55;100626.34;;;13.14;87.46
72465;BME280;60471;52.150;4.508;2023-05-10T01:57:28;100615.56;;;13.17;87.13
72465;BME280;60471;52.150;4.508;2023-05-10T02:00:01;100623.81;;;13.27;87.09
72465;BME280;60471;52.150;4.508;2023-05-10T02:02:30;100622.50;;;13.20;87.08
72465;BME280;60471;52.150;4.508;2023-05-10T02:05:02;100622.50;;;13.20;87.35
72465;BME280;60471;52.150;4.508;2023-05-10T02:07:32;100627.53;;;13.24;86.95
72465;BME280;60471;52.150;4.508;2023-05-10T02:10:02;100633.00;;;13.36;86.71
72465;BME280;60471;52.150;4.508;2023-05-10T02:12:32;100623.50;;;13.46;86.78
72465;BME280;60471;52.150;4.508;2023-05-10T02:15:04;100622.75;;;13.44;86.31
72465;BME280;60471;52.150;4.508;2023-05-10T02:17:34;100632.50;;;13.43;86.64
72465;BME280;60471;52.150;4.508;2023-05-10T02:20:05;100634.38;;;13.55;86.73
72465;BME280;60471;52.150;4.508;2023-05-10T02:22:37;100634.28;;;13.57;86.30
72465;BME280;60471;52.150;4.508;2023-05-10T02:25:06;100628.91;;;13.44;86.40
72465;BME280;60471;52.150;4.508;2023-05-10T02:27:36;100636.75;;;13.60;86.55
72465;BME280;60471;52.150;4.508;2023-05-10T02:30:04;100641.38;;;13.56;86.19
72465;BME280;60471;52.150;4.508;2023-05-10T02:32:33;100637.16;;;13.40;86.37
72465;BME280;60471;52.150;4.508;2023-05-10T02:35:02;100637.44;;;13.21;86.83
72465;BME280;60471;52.150;4.508;2023-05-10T02:37:29;100637.53;;;13.19;87.53
72465;BME280;60471;52.150;4.508;2023-05-10T02:39:58;100638.84;;;13.41;86.96
72465;BME280;60471;52.150;4.508;2023-05-10T02:42:27;100639.03;;;13.52;86.04
72465;BME280;60471;52.150;4.508;2023-05-10T02:45:00;100646.97;;;13.52;86.07
72465;BME280;60471;52.150;4.508;2023-05-10T02:47:28;100647.78;;;13.67;86.14
72465;BME280;60471;52.150;4.508;2023-05-10T02:49:55;100647.78;;;13.67;85.54
72465;BME280;60471;52.150;4.508;2023-05-10T02:52:27;100646.41;;;13.61;85.14
72465;BME280;60471;52.150;4.508;2023-05-10T02:55:00;100652.19;;;13.53;85.96
72465;BME280;60471;52.150;4.508;2023-05-10T02:57:32;100641.88;;;13.49;86.14
72465;BME280;60471;52.150;4.508;2023-05-10T03:00:01;100644.03;;;13.71;85.61
72465;BME280;60471;52.150;4.508;2023-05-10T03:02:29;100638.78;;;13.83;85.21
72465;BME280;60471;52.150;4.508;2023-05-10T03:04:56;100636.22;;;13.82;84.74
72465;BME280;60471;52.150;4.508;2023-05-10T03:07:22;100646.25;;;13.77;85.08
72465;BME280;60471;52.150;4.508;2023-05-10T03:09:49;100639.16;;;13.77;84.77
72465;BME280;60471;52.150;4.508;2023-05-10T03:12:52;100650.00;;;13.60;85.11
72465;BME280;60471;52.150;4.508;2023-05-10T03:15:51;100645.13;;;13.67;86.03
72465;BME280;60471;52.150;4.508;2023-05-10T03:18:52;100634.84;;;13.89;85.36
72465;BME280;60471;52.150;4.508;2023-05-10T03:21:25;100643.69;;;13.89;85.30
72465;BME280;60471;52.150;4.508;2023-05-10T03:24:02;100642.81;;;13.89;85.15
72465;BME280;60471;52.150;4.508;2023-05-10T03:26:33;100647.72;;;13.95;84.34
72465;BME280;60471;52.150;4.508;2023-05-10T03:29:01;100646.78;;;13.96;84.98
72465;BME280;60471;52.150;4.508;2023-05-10T03:31:28;100646.97;;;13.93;84.09
72465;BME280;60471;52.150;4.508;2023-05-10T03:33:54;100648.31;;;14.00;84.45
72465;BME280;60471;52.150;4.508;2023-05-10T03:36:21;100645.78;;;13.84;83.79
72465;BME280;60471;52.150;4.508;2023-05-10T03:38:47;100651.53;;;13.91;84.50
72465;BME280;60471;52.150;4.508;2023-05-10T03:41:13;100659.41;;;13.78;84.13
72465;BME280;60471;52.150;4.508;2023-05-10T03:43:39;100649.13;;;13.74;85.01
72465;BME280;60471;52.150;4.508;2023-05-10T03:46:06;100657.22;;;13.85;84.45
72465;BME280;60471;52.150;4.508;2023-05-10T03:48:33;100657.03;;;13.88;84.44
72465;BME280;60471;52.150;4.508;2023-05-10T03:50:59;100662.63;;;13.83;84.47
72465;BME280;60471;52.150;4.508;2023-05-10T03:53:25;100651.66;;;13.89;84.10
72465;BME280;60471;52.150;4.508;2023-05-10T03:55:52;100654.19;;;13.91;84.44
72465;BME280;60471;52.150;4.508;2023-05-10T03:58:18;100662.47;;;14.13;83.52
72465;BME280;60471;52.150;4.508;2023-05-10T04:00:45;100659.91;;;14.12;83.24
72465;BME280;60471;52.150;4.508;2023-05-10T04:03:12;100654.25;;;14.04;83.70
72465;BME280;60471;52.150;4.508;2023-05-10T04:05:39;100649.31;;;13.98;82.55
72465;BME280;60471;52.150;4.508;2023-05-10T04:08:05;100646.53;;;13.86;83.47
72465;BME280;60471;52.150;4.508;2023-05-10T04:10:32;100664.97;;;13.88;84.20
72465;BME280;60471;52.150;4.508;2023-05-10T04:12:58;100664.28;;;13.99;83.86
72465;BME280;60471;52.150;4.508;2023-05-10T04:15:24;100676.84;;;13.82;83.38
72465;BME280;60471;52.150;4.508;2023-05-10T04:17:51;100676.31;;;13.63;84.67
72465;BME280;60471;52.150;4.508;2023-05-10T04:20:17;100677.81;;;13.67;84.35
72465;BME280;60471;52.150;4.508;2023-05-10T04:22:43;100674.91;;;13.57;84.44
72465;BME280;60471;52.150;4.508;2023-05-10T04:25:09;100676.78;;;13.70;83.62
72465;BME280;60471;52.150;4.508;2023-05-10T04:27:36;100678.09;;;13.77;83.25
72465;BME280;60471;52.150;4.508;2023-05-10T04:30:02;100679.09;;;13.88;83.42
72465;BME280;60471;52.150;4.508;2023-05-10T04:32:29;100681.13;;;13.56;83.10
72465;BME280;60471;52.150;4.508;2023-05-10T04:34:55;100684.91;;;13.67;83.32
72465;BME280;60471;52.150;4.508;2023-05-10T04:37:22;100687.09;;;13.74;83.19
72465;BME280;60471;52.150;4.508;2023-05-10T04:39:48;100688.59;;;13.78;81.99
72465;BME280;60471;52.150;4.508;2023-05-10T04:42:14;100688.22;;;13.84;81.73
72465;BME280;60471;52.150;4.508;2023-05-10T04:44:41;100692.34;;;13.88;81.93
72465;BME280;60471;52.150;4.508;2023-05-10T04:47:07;100694.72;;;13.93;81.78
72465;BME280;60471;52.150;4.508;2023-05-10T04:49:33;100695.69;;;13.92;82.18
72465;BME280;60471;52.150;4.508;2023-05-10T04:51:59;100695.22;;;13.85;81.50
72465;BME280;60471;52.150;4.508;2023-05-10T04:54:26;100702.63;;;13.80;81.50
72465;BME280;60471;52.150;4.508;2023-05-10T04:56:52;100703.75;;;13.76;81.69
72465;BME280;60471;52.150;4.508;2023-05-10T04:59:18;100697.50;;;13.91;82.15
72465;BME280;60471;52.150;4.508;2023-05-10T05:01:44;100694.00;;;13.91;81.93
72465;BME280;60471;52.150;4.508;2023-05-10T05:04:10;100699.56;;;14.01;81.12
72465;BME280;60471;52.150;4.508;2023-05-10T05:06:37;100700.91;;;14.20;81.06
72465;BME280;60471;52.150;4.508;2023-05-10T05:09:03;100710.91;;;14.03;80.44
72465;BME280;60471;52.150;4.508;2023-05-10T05:11:29;100715.38;;;14.02;80.80
72465;BME280;60471;52.150;4.508;2023-05-10T05:13:56;100713.09;;;13.96;80.88
72465;BME280;60471;52.150;4.508;2023-05-10T05:16:22;100719.28;;;13.82;81.14
72465;BME280;60471;52.150;4.508;2023-05-10T05:18:48;100716.81;;;13.93;81.06
72465;BME280;60471;52.150;4.508;2023-05-10T05:21:15;100717.19;;;14.02;81.26
72465;BME280;60471;52.150;4.508;2023-05-10T05:23:42;100722.28;;;14.05;80.45
72465;BME280;60471;52.150;4.508;2023-05-10T05:26:09;100727.63;;;13.90;80.96
72465;BME280;60471;52.150;4.508;2023-05-10T05:28:35;100722.50;;;13.73;81.87
72465;BME280;60471;52.150;4.508;2023-05-10T05:31:04;100725.75;;;13.50;82.51
72465;BME280;60471;52.150;4.508;2023-05-10T05:33:31;100732.91;;;13.76;82.08
72465;BME280;60471;52.150;4.508;2023-05-10T05:36:00;100721.28;;;13.79;82.07
72465;BME280;60471;52.150;4.508;2023-05-10T05:38:27;100734.47;;;14.07;81.46
72465;BME280;60471;52.150;4.508;2023-05-10T05:40:54;100734.03;;;13.86;82.21
72465;BME280;60471;52.150;4.508;2023-05-10T05:43:20;100737.09;;;13.66;83.04
72465;BME280;60471;52.150;4.508;2023-05-10T05:45:46;100734.91;;;13.44;84.26
72465;BME280;60471;52.150;4.508;2023-05-10T05:48:12;100737.41;;;13.61;83.69
72465;BME280;60471;52.150;4.508;2023-05-10T05:50:38;100739.97;;;13.49;83.23
72465;BME280;60471;52.150;4.508;2023-05-10T05:53:05;100740.25;;;13.58;82.97
72465;BME280;60471;52.150;4.508;2023-05-10T05:55:31;100744.56;;;13.88;81.20
72465;BME280;60471;52.150;4.508;2023-05-10T05:57:58;100745.56;;;14.00;80.63
72465;BME280;60471;52.150;4.508;2023-05-10T06:00:24;100750.78;;;14.15;80.30
72465;BME280;60471;52.150;4.508;2023-05-10T06:02:50;100751.47;;;14.32;79.07
72465;BME280;60471;52.150;4.508;2023-05-10T06:05:16;100740.25;;;14.41;78.94
72465;BME280;60471;52.150;4.508;2023-05-10T06:07:42;100757.91;;;14.42;78.66
72465;BME280;60471;52.150;4.508;2023-05-10T06:10:09;100747.78;;;14.88;76.65
72465;BME280;60471;52.150;4.508;2023-05-10T06:12:35;100746.41;;;14.95;76.18
72465;BME280;60471;52.150;4.508;2023-05-10T06:15:03;100752.41;;;15.12;76.14
72465;BME280;60471;52.150;4.508;2023-05-10T06:17:29;100750.34;;;15.02;75.58
72465;BME280;60471;52.150;4.508;2023-05-10T06:19:55;100755.84;;;14.87;76.04
72465;BME280;60471;52.150;4.508;2023-05-10T06:22:22;100749.28;;;15.18;75.97
72465;BME280;60471;52.150;4.508;2023-05-10T06:24:49;100753.53;;;15.07;76.39
72465;BME280;60471;52.150;4.508;2023-05-10T06:27:15;100760.28;;;14.73;77.21
72465;BME280;60471;52.150;4.508;2023-05-10T06:29:41;100763.09;;;14.58;78.04
72465;BME280;60471;52.150;4.508;2023-05-10T06:32:07;100762.34;;;14.56;78.91
72465;BME280;60471;52.150;4.508;2023-05-10T06:34:34;100766.13;;;14.66;78.49
72465;BME280;60471;52.150;4.508;2023-05-10T06:37:00;100763.06;;;14.85;77.86
72465;BME280;60471;52.150;4.508;2023-05-10T06:39:26;100762.88;;;14.88;77.48
72465;BME280;60471;52.150;4.508;2023-05-10T06:41:52;100764.44;;;14.77;78.85
72465;BME280;60471;52.150;4.508;2023-05-10T06:44:18;100764.50;;;15.03;77.53
72465;BME280;60471;52.150;4.508;2023-05-10T06:46:45;100764.09;;;15.09;76.52
72465;BME280;60471;52.150;4.508;2023-05-10T06:49:11;100772.81;;;15.11;75.86
72465;BME280;60471;52.150;4.508;2023-05-10T06:51:37;100770.78;;;15.15;76.43
72465;BME280;60471;52.150;4.508;2023-05-10T06:54:03;100769.06;;;15.01;76.15
72465;BME280;60471;52.150;4.508;2023-05-10T06:56:29;100774.63;;;15.23;75.80
72465;BME280;60471;52.150;4.508;2023-05-10T06:58:56;100764.00;;;15.61;74.82
72465;BME280;60471;52.150;4.508;2023-05-10T07:01:22;100770.84;;;15.65;74.64
72465;BME280;60471;52.150;4.508;2023-05-10T07:03:48;100762.31;;;15.86;74.34
72465;BME280;60471;52.150;4.508;2023-05-10T07:06:14;100774.97;;;15.70;73.54
72465;BME280;60471;52.150;4.508;2023-05-10T07:08:40;100785.84;;;15.67;74.35
72465;BME280;60471;52.150;4.508;2023-05-10T07:11:07;100785.22;;;15.63;74.57
72465;BME280;60471;52.150;4.508;2023-05-10T07:13:33;100792.50;;;15.59;74.84
72465;BME280;60471;52.150;4.508;2023-05-10T07:16:00;100791.31;;;15.25;75.69
72465;BME280;60471;52.150;4.508;2023-05-10T07:18:28;100785.41;;;15.60;75.85
72465;BME280;60471;52.150;4.508;2023-05-10T07:20:54;100791.75;;;15.57;75.22
72465;BME280;60471;52.150;4.508;2023-05-10T07:23:24;100790.72;;;15.73;74.48
72465;BME280;60471;52.150;4.508;2023-05-10T07:25:50;100790.63;;;15.87;73.63
72465;BME280;60471;52.150;4.508;2023-05-10T07:28:18;100790.34;;;16.15;72.81
72465;BME280;60471;52.150;4.508;2023-05-10T07:30:44;100786.75;;;16.64;70.89
72465;BME280;60471;52.150;4.508;2023-05-10T07:33:13;100802.56;;;17.26;68.82
72465;BME280;60471;52.150;4.508;2023-05-10T07:35:40;100795.97;;;16.47;70.15
72465;BME280;60471;52.150;4.508;2023-05-10T07:38:06;100799.81;;;16.19;71.47
72465;BME280;60471;52.150;4.508;2023-05-10T07:40:32;100798.03;;;16.07;72.66
72465;BME280;60471;52.150;4.508;2023-05-10T07:42:59;100807.63;;;15.72;72.60
72465;BME280;60471;52.150;4.508;2023-05-10T07:45:28;100801.75;;;15.41;74.71
72465;BME280;60471;52.150;4.508;2023-05-10T07:47:54;100804.09;;;15.46;74.94
72465;BME280;60471;52.150;4.508;2023-05-10T07:50:21;100807.06;;;15.41;75.17
72465;BME280;60471;52.150;4.508;2023-05-10T07:52:47;100806.31;;;15.52;74.77
72465;BME280;60471;52.150;4.508;2023-05-10T07:55:14;100806.97;;;15.93;74.75
72465;BME280;60471;52.150;4.508;2023-05-10T07:57:41;100809.44;;;15.84;73.76
72465;BME280;60471;52.150;4.508;2023-05-10T08:00:08;100803.41;;;16.31;71.71
72465;BME280;60471;52.150;4.508;2023-05-10T08:02:35;100807.41;;;16.37;70.53
72465;BME280;60471;52.150;4.508;2023-05-10T08:05:02;100807.53;;;16.35;70.19
72465;BME280;60471;52.150;4.508;2023-05-10T08:07:28;100806.44;;;16.50;70.71
72465;BME280;60471;52.150;4.508;2023-05-10T08:09:54;100809.81;;;16.89;68.87
72465;BME280;60471;52.150;4.508;2023-05-10T08:12:20;100813.88;;;16.82;68.69
72465;BME280;60471;52.150;4.508;2023-05-10T08:14:47;100809.34;;;16.95;69.26
72465;BME280;60471;52.150;4.508;2023-05-10T08:17:13;100808.91;;;17.13;68.93
72465;BME280;60471;52.150;4.508;2023-05-10T08:19:39;100816.16;;;16.99;68.53
72465;BME280;60471;52.150;4.508;2023-05-10T08:22:05;100820.75;;;16.97;67.67
72465;BME280;60471;52.150;4.508;2023-05-10T08:24:32;100828.00;;;16.59;68.72
72465;BME280;60471;52.150;4.508;2023-05-10T08:26:58;100833.56;;;16.19;70.93
72465;BME280;60471;52.150;4.508;2023-05-10T08:29:24;100835.69;;;16.14;71.69
72465;BME280;60471;52.150;4.508;2023-05-10T08:31:50;100826.47;;;16.43;69.94
72465;BME280;60471;52.150;4.508;2023-05-10T08:34:16;100830.41;;;16.50;69.25
72465;BME280;60471;52.150;4.508;2023-05-10T08:36:43;100847.09;;;16.16;70.31
72465;BME280;60471;52.150;4.508;2023-05-10T08:39:09;100849.84;;;16.27;69.62
72465;BME280;60471;52.150;4.508;2023-05-10T08:41:37;100846.66;;;16.22;69.66
72465;BME280;60471;52.150;4.508;2023-05-10T08:44:07;100847.16;;;16.40;69.31
72465;BME280;60471;52.150;4.508;2023-05-10T08:46:34;100846.47;;;16.00;71.75
72465;BME280;60471;52.150;4.508;2023-05-10T08:49:06;100849.75;;;16.03;72.17
72465;BME280;60471;52.150;4.508;2023-05-10T08:51:40;100850.28;;;16.21;71.45
72465;BME280;60471;52.150;4.508;2023-05-10T08:54:12;100860.06;;;16.33;70.71
72465;BME280;60471;52.150;4.508;2023-05-10T08:56:39;100864.31;;;16.36;70.41
72465;BME280;60471;52.150;4.508;2023-05-10T08:59:05;100869.16;;;16.55;70.28
72465;BME280;60471;52.150;4.508;2023-05-10T09:01:32;100870.97;;;16.54;69.29
72465;BME280;60471;52.150;4.508;2023-05-10T09:04:02;100878.91;;;16.79;68.55
72465;BME280;60471;52.150;4.508;2023-05-10T09:06:30;100877.41;;;16.26;69.82
72465;BME280;60471;52.150;4.508;2023-05-10T09:08:56;100876.56;;;16.26;70.45
72465;BME280;60471;52.150;4.508;2023-05-10T09:11:22;100877.63;;;16.36;70.68
72465;BME280;60471;52.150;4.508;2023-05-10T09:13:51;100885.78;;;16.58;70.47
72465;BME280;60471;52.150;4.508;2023-05-10T09:16:18;100879.56;;;16.83;68.54
72465;BME280;60471;52.150;4.508;2023-05-10T09:39:40;100892.03;;;19.11;60.96
72465;BME280;60471;52.150;4.508;2023-05-10T09:42:08;100892.25;;;19.40;59.86
72465;BME280;60471;52.150;4.508;2023-05-10T09:44:35;100888.72;;;19.39;59.44
72465;BME280;60471;52.150;4.508;2023-05-10T09:47:04;100902.28;;;19.27;60.23
72465;BME280;60471;52.150;4.508;2023-05-10T09:49:30;100903.41;;;19.56;59.08
72465;BME280;60471;52.150;4.508;2023-05-10T09:52:04;100905.53;;;20.04;57.83
72465;BME280;60471;52.150;4.508;2023-05-10T09:54:33;100914.44;;;20.35;55.64
72465;BME280;60471;52.150;4.508;2023-05-10T09:57:01;100904.78;;;20.23;55.74
72465;BME280;60471;52.150;4.508;2023-05-10T09:59:29;100912.31;;;19.14;58.70
72465;BME280;60471;52.150;4.508;2023-05-10T10:01:57;100913.69;;;18.97;59.20
72465;BME280;60471;52.150;4.508;2023-05-10T10:04:25;100920.31;;;18.48;61.29
72465;BME280;60471;52.150;4.508;2023-05-10T10:07:04;100915.75;;;17.81;63.64
72465;BME280;60471;52.150;4.508;2023-05-10T10:09:32;100912.00;;;17.49;65.75
72465;BME280;60471;52.150;4.508;2023-05-10T10:12:00;100917.59;;;17.68;65.17
72465;BME280;60471;52.150;4.508;2023-05-10T10:14:28;100916.03;;;18.34;62.59
72465;BME280;60471;52.150;4.508;2023-05-10T10:16:55;100918.75;;;17.77;65.12
72465;BME280;60471;52.150;4.508;2023-05-10T10:19:22;100921.22;;;17.56;65.43
72465;BME280;60471;52.150;4.508;2023-05-10T10:21:49;100922.59;;;17.14;67.31
72465;BME280;60471;52.150;4.508;2023-05-10T10:24:16;100925.06;;;17.17;66.22
72465;BME280;60471;52.150;4.508;2023-05-10T10:26:43;100918.59;;;16.71;68.13
72465;BME280;60471;52.150;4.508;2023-05-10T10:29:21;100921.78;;;16.64;68.34
72465;BME280;60471;52.150;4.508;2023-05-10T10:34:32;100932.78;;;16.72;67.86
72465;BME280;60471;52.150;4.508;2023-05-10T10:37:03;100924.94;;;16.94;67.56
72465;BME280;60471;52.150;4.508;2023-05-10T10:39:31;100939.28;;;16.55;68.61
72465;BME280;60471;52.150;4.508;2023-05-10T10:41:58;100938.25;;;16.07;71.29
72465;BME280;60471;52.150;4.508;2023-05-10T10:47:01;100940.38;;;16.02;71.59
72465;BME280;60471;52.150;4.508;2023-05-10T10:49:52;100944.84;;;15.88;71.88
72465;BME280;60471;52.150;4.508;2023-05-10T10:52:37;100950.91;;;15.78;72.45
72465;BME280;60471;52.150;4.508;2023-05-10T11:00:31;100948.13;;;15.92;72.82
72465;BME280;60471;52.150;4.508;2023-05-10T11:03:11;100951.97;;;15.75;72.33
72465;BME280;60471;52.150;4.508;2023-05-10T11:05:46;100951.66;;;15.53;73.95
72465;BME280;60471;52.150;4.508;2023-05-10T11:08:21;100964.91;;;15.40;74.28
72465;BME280;60471;52.150;4.508;2023-05-10T11:15:55;100979.66;;;15.04;77.50
72465;BME280;60471;52.150;4.508;2023-05-10T11:21:01;100965.66;;;15.15;76.92
72465;BME280;60471;52.150;4.508;2023-05-10T11:26:09;100968.34;;;15.42;77.16
72465;BME280;60471;52.150;4.508;2023-05-10T11:28:41;100961.91;;;15.32;77.39
72465;BME280;60471;52.150;4.508;2023-05-10T11:31:09;100968.38;;;15.55;75.56
72465;BME280;60471;52.150;4.508;2023-05-10T11:33:43;100975.34;;;15.70;74.90
72465;BME280;60471;52.150;4.508;2023-05-10T11:36:17;100967.22;;;15.99;73.39
72465;BME280;60471;52.150;4.508;2023-05-10T11:38:48;100966.25;;;16.25;72.92
72465;BME280;60471;52.150;4.508;2023-05-10T11:41:17;100956.00;;;16.83;70.84
72465;BME280;60471;52.150;4.508;2023-05-10T11:43:46;100956.88;;;16.45;71.43
72465;BME280;60471;52.150;4.508;2023-05-10T11:46:16;100952.38;;;16.58;72.98
72465;BME280;60471;52.150;4.508;2023-05-10T11:48:47;100965.97;;;17.52;68.93
72465;BME280;60471;52.150;4.508;2023-05-10T11:51:23;100955.78;;;17.81;67.42
72465;BME280;60471;52.150;4.508;2023-05-10T11:53:52;100968.88;;;17.73;67.31
72465;BME280;60471;52.150;4.508;2023-05-10T11:56:20;100975.84;;;17.39;66.94
72465;BME280;60471;52.150;4.508;2023-05-10T11:58:56;100964.72;;;17.21;68.51
72465;BME280;60471;52.150;4.508;2023-05-10T12:01:24;100964.38;;;17.26;67.02
72465;BME280;60471;52.150;4.508;2023-05-10T12:03:53;100969.09;;;16.60;70.64
72465;BME280;60471;52.150;4.508;2023-05-10T12:06:21;100966.66;;;17.19;68.19
72465;BME280;60471;52.150;4.508;2023-05-10T12:08:48;100976.75;;;16.90;67.88
72465;BME280;60471;52.150;4.508;2023-05-10T12:11:24;100971.38;;;16.53;69.40
72465;BME280;60471;52.150;4.508;2023-05-10T12:13:52;100976.06;;;16.24;71.16
72465;BME280;60471;52.150;4.508;2023-05-10T12:16:21;100981.13;;;15.89;72.99
72465;BME280;60471;52.150;4.508;2023-05-10T12:18:49;100978.94;;;15.96;71.66
72465;BME280;60471;52.150;4.508;2023-05-10T12:21:17;100985.75;;;16.13;72.16
72465;BME280;60471;52.150;4.508;2023-05-10T12:23:51;100988.72;;;16.34;70.77
72465;BME280;60471;52.150;4.508;2023-05-10T12:26:22;100983.44;;;16.72;69.36
72465;BME280;60471;52.150;4.508;2023-05-10T12:28:48;100986.34;;;16.93;68.76
72465;BME280;60471;52.150;4.508;2023-05-10T12:31:15;100990.50;;;16.97;68.39
72465;BME280;60471;52.150;4.508;2023-05-10T12:33:43;100984.16;;;17.10;67.70
72465;BME280;60471;52.150;4.508;2023-05-10T12:36:11;100989.31;;;17.25;67.19
72465;BME280;60471;52.150;4.508;2023-05-10T12:38:40;100988.13;;;17.05;67.77
72465;BME280;60471;52.150;4.508;2023-05-10T12:41:15;100999.88;;;16.90;68.22
72465;BME280;60471;52.150;4.508;2023-05-10T12:43:43;100992.91;;;17.36;66.51
72465;BME280;60471;52.150;4.508;2023-05-10T12:46:13;100994.06;;;17.69;66.06
72465;BME280;60471;52.150;4.508;2023-05-10T12:48:44;100992.75;;;17.51;64.89
72465;BME280;60471;52.150;4.508;2023-05-10T12:51:20;100993.84;;;17.48;65.58
72465;BME280;60471;52.150;4.508;2023-05-10T12:53:48;101005.06;;;17.17;66.69
72465;BME280;60471;52.150;4.508;2023-05-10T12:56:14;101002.09;;;17.08;66.85
72465;BME280;60471;52.150;4.508;2023-05-10T12:58:40;100998.19;;;17.25;66.28
72465;BME280;60471;52.150;4.508;2023-05-10T13:01:06;101010.41;;;17.04;66.58
72465;BME280;60471;52.150;4.508;2023-05-10T13:03:33;100996.41;;;17.26;66.42
72465;BME280;60471;52.150;4.508;2023-05-10T13:05:59;101003.44;;;17.27;65.72
72465;BME280;60471;52.150;4.508;2023-05-10T13:08:25;101006.41;;;16.86;67.64
72465;BME280;60471;52.150;4.508;2023-05-10T13:10:51;101006.81;;;16.92;67.75
72465;BME280;60471;52.150;4.508;2023-05-10T13:13:18;101012.94;;;16.69;67.78
72465;BME280;60471;52.150;4.508;2023-05-10T13:15:44;101010.16;;;16.70;67.65
72465;BME280;60471;52.150;4.508;2023-05-10T13:18:10;101007.22;;;16.99;66.88
72465;BME280;60471;52.150;4.508;2023-05-10T13:20:36;101005.88;;;16.93;67.02
72465;BME280;60471;52.150;4.508;2023-05-10T13:23:03;101001.84;;;16.75;67.49
72465;BME280;60471;52.150;4.508;2023-05-10T13:25:29;101020.63;;;17.10;67.18
72465;BME280;60471;52.150;4.508;2023-05-10T13:27:55;101011.50;;;16.89;67.38
72465;BME280;60471;52.150;4.508;2023-05-10T13:30:22;101015.78;;;16.53;69.42
72465;BME280;60471;52.150;4.508;2023-05-10T13:32:49;101015.03;;;16.64;68.61
72465;BME280;60471;52.150;4.508;2023-05-10T13:35:16;101021.75;;;16.82;67.51
72465;BME280;60471;52.150;4.508;2023-05-10T13:37:42;101015.16;;;16.62;67.09
72465;BME280;60471;52.150;4.508;2023-05-10T13:40:08;101014.16;;;17.01;66.76
72465;BME280;60471;52.150;4.508;2023-05-10T13:42:34;101017.50;;;17.29;64.98
72465;BME280;60471;52.150;4.508;2023-05-10T13:45:01;101025.38;;;16.94;66.56
72465;BME280;60471;52.150;4.508;2023-05-10T13:47:27;101024.03;;;17.12;67.27
72465;BME280;60471;52.150;4.508;2023-05-10T13:49:53;101024.59;;;17.65;65.67
72465;BME280;60471;52.150;4.508;2023-05-10T13:52:20;101022.91;;;17.64;64.73